Time;durP1;ratioP1;P1;durP2;ratioP2;P2;SDS_P1;SDS_P2;PMS_P1;PMS_P2;Temp;Humidity;BMP_temperature;BMP_pressure;BME280_temperature;BME280_humidity;BME280_pressure;Samples;Min_cycle;Max_cycle;Signal;HPM_P1;HPM_P2
2021/11/05 00:01:14;;;;;;;4.80;0.93;;;;;;;8.65;100.00;101631.63;4959035;29;20031;-79
2021/11/05 00:03:39;;;;;;;1.75;0.80;;;;;;;8.66;100.00;101638.63;4959093;29;20042;-79
2021/11/05 00:06:04;;;;;;;6.72;1.20;;;;;;;8.66;100.00;101643.91;4960130;28;20030;-79
2021/11/05 00:08:30;;;;;;;3.03;0.80;;;;;;;8.58;100.00;101645.00;4959888;28;20031;-81
2021/11/05 00:10:55;;;;;;;6.22;1.10;;;;;;;8.73;100.00;101645.44;4958986;28;20023;-79
2021/11/05 00:13:21;;;;;;;4.18;0.98;;;;;;;8.74;100.00;101649.78;4958984;28;20041;-79
2021/11/05 00:15:46;;;;;;;6.20;1.33;;;;;;;8.64;100.00;101645.72;4959904;28;20031;-79
2021/11/05 00:18:12;;;;;;;3.63;0.98;;;;;;;8.77;100.00;101654.13;4964732;28;20029;-80
2021/11/05 00:20:37;;;;;;;3.28;0.80;;;;;;;8.63;100.00;101649.28;4960601;29;20441;-80
2021/11/05 00:23:02;;;;;;;6.38;0.82;;;;;;;8.70;100.00;101654.31;4959982;28;20027;-79
2021/11/05 00:25:28;;;;;;;3.17;1.00;;;;;;;8.66;100.00;101662.38;4958275;28;20023;-79
2021/11/05 00:27:53;;;;;;;2.25;0.88;;;;;;;8.55;100.00;101663.56;4967428;23;20047;-80
2021/11/05 00:30:19;;;;;;;3.03;0.80;;;;;;;8.63;100.00;101667.75;4958163;28;20482;-81
2021/11/05 00:32:45;;;;;;;1.48;0.88;;;;;;;8.55;100.00;101671.47;4956989;29;20039;-80
2021/11/05 00:35:11;;;;;;;6.03;1.00;;;;;;;8.64;100.00;101675.59;4957377;28;20031;-80
2021/11/05 00:37:37;;;;;;;6.65;0.93;;;;;;;8.71;100.00;101676.25;4957411;28;20377;-82
2021/11/05 00:40:03;;;;;;;5.35;0.85;;;;;;;8.70;100.00;101671.91;4956387;29;20027;-80
2021/11/05 00:42:29;;;;;;;6.90;0.90;;;;;;;8.88;100.00;101672.22;4957604;28;20035;-80
2021/11/05 00:44:54;;;;;;;4.20;1.00;;;;;;;8.96;100.00;101676.34;4957542;28;20031;-80
2021/11/05 00:47:19;;;;;;;3.83;1.00;;;;;;;8.85;100.00;101679.31;4956944;28;20027;-83
2021/11/05 00:49:45;;;;;;;7.45;1.05;;;;;;;9.12;100.00;101681.09;4957661;28;20031;-80
2021/11/05 00:52:10;;;;;;;4.72;1.17;;;;;;;8.99;100.00;101680.63;4957547;28;20019;-81
2021/11/05 00:54:36;;;;;;;3.67;0.90;;;;;;;9.22;100.00;101673.75;4957385;28;20039;-81
2021/11/05 00:57:01;;;;;;;3.83;0.90;;;;;;;9.16;100.00;101679.22;4957479;28;20039;-80
2021/11/05 00:59:27;;;;;;;8.00;0.93;;;;;;;9.12;100.00;101680.22;4957156;28;20147;-81
2021/11/05 01:01:52;;;;;;;3.90;0.77;;;;;;;9.36;100.00;101678.56;4957382;28;20035;-81
2021/11/05 01:04:17;;;;;;;3.83;0.75;;;;;;;9.24;100.00;101682.44;4957292;28;20027;-84
2021/11/05 01:06:43;;;;;;;3.25;0.85;;;;;;;9.12;100.00;101680.22;4957070;28;20023;-81
2021/11/05 01:09:08;;;;;;;7.13;0.90;;;;;;;9.24;100.00;101685.09;4956915;28;20031;-84
2021/11/05 01:11:34;;;;;;;1.42;0.60;;;;;;;9.00;100.00;101685.03;4957080;28;20505;-82
2021/11/05 01:13:59;;;;;;;5.03;0.85;;;;;;;9.16;100.00;101690.63;4956086;29;20027;-82
2021/11/05 01:16:25;;;;;;;3.95;0.73;;;;;;;9.17;100.00;101686.22;4956009;29;20494;-83
2021/11/05 01:18:50;;;;;;;3.95;0.77;;;;;;;9.02;100.00;101693.72;4957338;28;20031;-81
2021/11/05 01:21:16;;;;;;;6.05;1.02;;;;;;;9.05;100.00;101692.78;4957054;29;20028;-80
2021/11/05 01:23:41;;;;;;;4.55;0.80;;;;;;;8.96;100.00;101692.16;4957255;28;20023;-81
2021/11/05 01:26:07;;;;;;;3.72;0.57;;;;;;;8.79;100.00;101689.19;4957753;28;20091;-82
2021/11/05 01:28:32;;;;;;;3.88;0.80;;;;;;;8.71;100.00;101692.06;4955702;29;20105;-82
2021/11/05 01:30:58;;;;;;;5.05;0.88;;;;;;;8.67;100.00;101701.00;4955599;29;20050;-81
2021/11/05 01:33:23;;;;;;;8.85;1.23;;;;;;;8.57;100.00;101706.56;4956773;28;20047;-81
2021/11/05 01:35:49;;;;;;;3.67;1.58;;;;;;;8.57;100.00;101708.31;4955676;29;20026;-81
2021/11/05 01:38:14;;;;;;;2.80;0.75;;;;;;;8.49;100.00;101705.88;4958563;28;20019;-81
2021/11/05 01:40:40;;;;;;;2.25;0.60;;;;;;;8.48;100.00;101704.19;4962722;29;20065;-80
2021/11/05 01:43:06;;;;;;;4.85;0.90;;;;;;;8.46;100.00;101700.72;4961105;28;20051;-80
2021/11/05 01:45:31;;;;;;;3.28;0.70;;;;;;;8.47;100.00;101705.09;4959912;28;20062;-80
2021/11/05 01:47:57;;;;;;;3.63;1.00;;;;;;;8.48;100.00;101706.81;4955186;29;20133;-80
2021/11/05 01:50:23;;;;;;;5.82;1.08;;;;;;;8.40;100.00;101707.03;4955155;29;20020;-80
2021/11/05 01:52:48;;;;;;;4.72;0.82;;;;;;;8.38;100.00;101703.56;4956765;28;20086;-80
2021/11/05 01:55:14;;;;;;;7.28;1.20;;;;;;;8.40;100.00;101706.16;4954966;29;20031;-80
2021/11/05 01:57:41;;;;;;;6.05;1.20;;;;;;;8.33;100.00;101708.16;4955067;28;20043;-80
2021/11/05 02:00:07;;;;;;;6.72;1.48;;;;;;;8.23;100.00;101713.69;4954719;29;20027;-79
2021/11/05 02:02:32;;;;;;;4.80;1.20;;;;;;;8.12;100.00;101718.41;4954971;29;20027;-80
2021/11/05 02:04:58;;;;;;;4.38;1.40;;;;;;;8.04;100.00;101718.59;4955891;28;20098;-80
2021/11/05 02:07:26;;;;;;;4.80;1.95;;;;;;;8.06;100.00;101722.06;4955731;28;20101;-79
2021/11/05 02:09:52;;;;;;;5.13;1.33;;;;;;;8.03;100.00;101716.91;4955643;28;20125;-79
2021/11/05 02:12:17;;;;;;;5.57;1.10;;;;;;;7.94;100.00;101714.50;4938618;29;20039;-79
2021/11/05 02:14:44;;;;;;;5.70;1.42;;;;;;;7.90;100.00;101723.38;4955571;28;20112;-80
2021/11/05 02:17:09;;;;;;;6.30;1.30;;;;;;;7.85;100.00;101719.13;4938841;29;20031;-80
2021/11/05 02:19:35;;;;;;;5.70;1.20;;;;;;;7.79;100.00;101727.19;4954712;29;20029;-81
2021/11/05 02:22:00;;;;;;;3.90;1.00;;;;;;;7.75;100.00;101719.41;4955757;28;20027;-80
2021/11/05 02:24:26;;;;;;;5.22;1.20;;;;;;;7.69;100.00;101729.19;4955837;29;20106;-80
2021/11/05 02:26:52;;;;;;;3.67;0.90;;;;;;;7.64;100.00;101725.81;4954440;29;20027;-79
2021/11/05 02:29:18;;;;;;;6.75;1.75;;;;;;;7.59;100.00;101730.34;4955772;28;20074;-80
2021/11/05 02:31:43;;;;;;;10.35;1.50;;;;;;;7.58;100.00;101726.84;4956275;28;20031;-82
2021/11/05 02:34:09;;;;;;;2.78;1.00;;;;;;;7.50;100.00;101734.06;4959826;28;20031;-80
2021/11/05 02:36:34;;;;;;;4.45;1.08;;;;;;;7.54;100.00;101741.00;4960248;28;20464;-83
2021/11/05 02:39:00;;;;;;;4.25;1.23;;;;;;;7.46;100.00;101738.56;4961118;29;20078;-81
2021/11/05 02:41:25;;;;;;;7.93;1.92;;;;;;;7.39;100.00;101744.88;4959755;28;20043;-80
2021/11/05 02:43:51;;;;;;;2.65;0.90;;;;;;;7.34;100.00;101744.97;4958533;28;20024;-83
2021/11/05 02:46:16;;;;;;;5.85;1.13;;;;;;;7.25;100.00;101739.09;4954293;29;20122;-82
2021/11/05 02:48:42;;;;;;;3.78;1.33;;;;;;;7.17;100.00;101747.19;4957007;28;20553;-82
2021/11/05 02:51:09;;;;;;;4.05;1.40;;;;;;;7.21;100.00;101749.72;4956585;29;20651;-81
2021/11/05 02:53:34;;;;;;;5.55;1.55;;;;;;;7.37;100.00;101748.44;4957107;28;20023;-84
2021/11/05 02:56:00;;;;;;;3.25;1.00;;;;;;;7.50;100.00;101746.38;4956665;29;20038;-82
2021/11/05 02:58:25;;;;;;;5.50;1.30;;;;;;;7.52;100.00;101749.81;4957640;29;20039;-84
2021/11/05 03:00:51;;;;;;;7.20;1.73;;;;;;;7.62;100.00;101753.97;4958732;28;20047;-82
2021/11/05 03:03:16;;;;;;;4.13;1.30;;;;;;;7.66;100.00;101760.00;4957622;28;20031;-85
2021/11/05 03:05:43;;;;;;;4.05;1.35;;;;;;;7.75;100.00;101761.53;4953757;29;20070;-83
2021/11/05 03:08:09;;;;;;;3.78;1.30;;;;;;;7.82;100.00;101757.84;4955204;29;20106;-81
2021/11/05 03:10:34;;;;;;;7.93;1.65;;;;;;;7.88;100.00;101757.66;4955180;28;20023;-84
2021/11/05 03:13:00;;;;;;;4.60;1.13;;;;;;;7.84;100.00;101763.94;4954926;28;20035;-81
2021/11/05 03:15:26;;;;;;;4.95;1.30;;;;;;;7.87;100.00;101763.84;4953601;29;20035;-81
2021/11/05 03:17:51;;;;;;;4.03;1.55;;;;;;;7.84;100.00;101762.16;4954958;28;20037;-82
2021/11/05 03:20:17;;;;;;;2.97;0.98;;;;;;;7.86;100.00;101767.38;4953882;29;20032;-82
2021/11/05 03:22:43;;;;;;;4.57;1.02;;;;;;;7.81;100.00;101771.91;4954880;28;20487;-83
2021/11/05 03:25:09;;;;;;;2.72;0.73;;;;;;;7.82;100.00;101768.38;4954750;28;20478;-80
2021/11/05 03:27:34;;;;;;;7.35;1.13;;;;;;;7.78;100.00;101772.00;4954922;28;20058;-81
2021/11/05 03:30:06;;;;;;;7.15;0.90;;;;;;;7.78;100.00;101783.38;4954885;28;20549;-82
2021/11/05 03:32:32;;;;;;;3.80;0.90;;;;;;;7.78;100.00;101775.47;4953895;29;20028;-82
2021/11/05 03:34:57;;;;;;;4.38;1.13;;;;;;;7.71;100.00;101781.81;4954711;28;20094;-82
2021/11/05 03:37:23;;;;;;;9.32;1.20;;;;;;;7.72;100.00;101786.16;4954726;28;20037;-82
2021/11/05 03:39:48;;;;;;;4.32;1.00;;;;;;;7.70;100.00;101788.84;4957604;28;20035;-80
2021/11/05 03:42:14;;;;;;;2.63;0.90;;;;;;;7.70;100.00;101790.63;4961828;28;20033;-80
2021/11/05 03:44:39;;;;;;;4.57;1.00;;;;;;;7.69;100.00;101800.28;4961058;28;20034;-81
2021/11/05 03:47:04;;;;;;;3.45;0.80;;;;;;;7.75;100.00;101790.50;4968336;29;20042;-82
2021/11/05 03:49:30;;;;;;;8.45;1.00;;;;;;;7.90;100.00;101797.13;4967001;28;20107;-80
2021/11/05 03:51:56;;;;;;;8.85;1.52;;;;;;;7.96;100.00;101807.50;4969189;28;20110;-79
2021/11/05 03:54:22;;;;;;;8.57;0.95;;;;;;;8.06;100.00;101808.13;4968088;29;20098;-81
2021/11/05 03:56:48;;;;;;;4.15;0.90;;;;;;;8.08;100.00;101814.25;4962881;28;20442;-80
2021/11/05 03:59:13;;;;;;;10.15;1.10;;;;;;;8.22;100.00;101816.50;4958573;28;20062;-81
2021/11/05 04:01:39;;;;;;;8.73;1.00;;;;;;;8.26;100.00;101812.84;4957336;28;20026;-82
2021/11/05 04:04:04;;;;;;;4.63;1.00;;;;;;;8.31;100.00;101818.88;4966876;28;20500;-80
2021/11/05 04:06:29;;;;;;;3.88;0.88;;;;;;;8.26;100.00;101826.03;4968496;28;20389;-81
2021/11/05 04:08:55;;;;;;;3.55;0.93;;;;;;;8.20;100.00;101829.72;4959133;28;20045;-81
2021/11/05 04:11:21;;;;;;;5.25;0.90;;;;;;;8.12;100.00;101833.44;4954974;29;20385;-80
2021/11/05 04:13:46;;;;;;;2.53;0.70;;;;;;;8.01;100.00;101837.22;4956135;28;20063;-80
2021/11/05 04:16:12;;;;;;;3.63;1.00;;;;;;;7.99;100.00;101833.75;4954943;28;20426;-80
2021/11/05 04:18:37;;;;;;;3.45;0.93;;;;;;;7.94;100.00;101848.81;4955366;28;20102;-79
2021/11/05 04:21:03;;;;;;;9.45;1.40;;;;;;;7.87;100.00;101847.25;4958349;28;20031;-80
2021/11/05 04:23:28;;;;;;;5.50;1.08;;;;;;;7.90;100.00;101847.19;4962152;28;20071;-81
2021/11/05 04:25:54;;;;;;;4.55;1.10;;;;;;;7.68;100.00;101847.72;4963759;28;20058;-81
2021/11/05 04:28:19;;;;;;;6.30;1.40;;;;;;;7.57;100.00;101846.22;4995297;23;20110;-80
2021/11/05 04:30:45;;;;;;;6.00;1.25;;;;;;;7.48;100.00;101856.97;4981497;28;20102;-81
2021/11/05 04:33:10;;;;;;;5.03;1.42;;;;;;;7.34;100.00;101863.41;4999589;28;20010;-81
2021/11/05 04:35:36;;;;;;;3.13;1.42;;;;;;;7.23;100.00;101871.53;5001017;28;20015;-80
2021/11/05 04:38:02;;;;;;;8.65;1.30;;;;;;;7.13;100.00;101869.16;4999955;28;20030;-79
2021/11/05 04:40:27;;;;;;;5.32;1.27;;;;;;;7.14;100.00;101873.53;4995660;28;20034;-81
2021/11/05 04:42:53;;;;;;;6.07;1.20;;;;;;;7.29;100.00;101873.19;4991443;28;20054;-80
2021/11/05 04:45:18;;;;;;;11.07;1.63;;;;;;;7.47;100.00;101877.16;4995770;28;20038;-79
2021/11/05 04:47:44;;;;;;;4.25;1.00;;;;;;;7.65;100.00;101880.25;4997453;28;20021;-81
2021/11/05 04:50:10;;;;;;;4.32;1.35;;;;;;;7.70;100.00;101886.25;4996097;28;20090;-80
2021/11/05 04:52:36;;;;;;;7.05;1.63;;;;;;;7.72;100.00;101883.59;4992377;28;20047;-80
2021/11/05 04:55:01;;;;;;;3.88;1.10;;;;;;;7.73;100.00;101883.53;4998377;28;20055;-80
2021/11/05 04:57:27;;;;;;;2.63;1.25;;;;;;;7.90;100.00;101897.22;4997834;28;20458;-81
2021/11/05 04:59:52;;;;;;;3.90;1.20;;;;;;;7.98;100.00;101898.75;4987845;28;20381;-81
2021/11/05 05:02:18;;;;;;;5.18;1.38;;;;;;;8.01;100.00;101897.81;4996550;28;20127;-81
2021/11/05 05:04:46;;;;;;;6.70;1.20;;;;;;;8.15;100.00;101905.38;4995636;28;20041;-81
2021/11/05 05:07:12;;;;;;;5.78;1.25;;;;;;;8.17;100.00;101905.34;4991302;28;20034;-81
2021/11/05 05:09:37;;;;;;;8.90;1.67;;;;;;;8.14;100.00;101910.69;4995910;28;20031;-80
2021/11/05 05:12:03;;;;;;;2.60;0.98;;;;;;;8.12;100.00;101908.09;4992153;28;20410;-81
2021/11/05 05:14:28;;;;;;;4.35;1.50;;;;;;;8.13;100.00;101914.22;4991680;28;20111;-82
2021/11/05 05:16:54;;;;;;;4.35;1.30;;;;;;;8.12;100.00;101920.38;4990373;28;20095;-82
2021/11/05 05:19:20;;;;;;;2.80;1.10;;;;;;;8.04;100.00;101917.94;4989559;28;20158;-79
2021/11/05 05:21:46;;;;;;;3.15;1.13;;;;;;;7.96;100.00;101929.53;4987473;28;20053;-80
2021/11/05 05:24:11;;;;;;;4.90;1.25;;;;;;;7.92;100.00;101924.41;4983839;28;20031;-80
2021/11/05 05:26:37;;;;;;;3.00;1.23;;;;;;;7.89;100.00;101929.72;4982568;28;20023;-80
2021/11/05 05:29:03;;;;;;;4.63;1.60;;;;;;;7.84;100.00;101929.84;4981198;28;20129;-80
2021/11/05 05:31:29;;;;;;;6.03;1.50;;;;;;;7.75;100.00;101932.69;4979242;28;20038;-80
2021/11/05 05:33:54;;;;;;;4.50;1.23;;;;;;;7.62;100.00;101925.09;4981998;28;20117;-80
2021/11/05 05:36:19;;;;;;;6.20;1.95;;;;;;;7.53;100.00;101936.66;4984175;28;20413;-80
2021/11/05 05:38:45;;;;;;;8.15;1.67;;;;;;;7.56;100.00;101943.66;4992012;28;20043;-80
2021/11/05 05:41:11;;;;;;;8.10;1.40;;;;;;;7.64;100.00;101943.47;4998771;28;20086;-79
2021/11/05 05:43:36;;;;;;;5.53;1.30;;;;;;;7.72;100.00;101946.78;4998482;28;20014;-80
2021/11/05 05:46:02;;;;;;;4.97;1.40;;;;;;;7.73;100.00;101951.16;4996218;28;20062;-80
2021/11/05 05:48:27;;;;;;;6.68;1.45;;;;;;;7.66;100.00;101957.44;4998941;28;20023;-79
2021/11/05 05:50:53;;;;;;;4.72;1.38;;;;;;;7.59;100.00;101960.22;4999196;28;20022;-80
2021/11/05 05:53:20;;;;;;;7.07;1.30;;;;;;;7.56;100.00;101962.09;4999203;28;20058;-80
2021/11/05 05:55:46;;;;;;;5.68;1.50;;;;;;;7.57;100.00;101966.44;4999540;28;20022;-82
2021/11/05 05:58:11;;;;;;;5.72;1.50;;;;;;;7.46;100.00;101970.19;4999101;28;20027;-79
2021/11/05 06:00:37;;;;;;;4.95;1.52;;;;;;;7.41;100.00;101974.66;4999178;28;20050;-80
2021/11/05 06:03:02;;;;;;;5.57;2.03;;;;;;;7.39;100.00;101976.47;4998828;28;20030;-80
2021/11/05 06:05:28;;;;;;;5.03;1.83;;;;;;;7.31;100.00;101973.97;4995567;28;20042;-80
2021/11/05 06:07:53;;;;;;;4.65;1.80;;;;;;;7.24;100.00;101980.28;4989101;28;20094;-81
2021/11/05 06:10:19;;;;;;;6.65;1.98;;;;;;;7.14;100.00;101989.28;4983116;28;20030;-81
2021/11/05 06:12:44;;;;;;;7.88;2.20;;;;;;;7.09;100.00;101987.59;4982737;28;20030;-83
2021/11/05 06:15:10;;;;;;;6.53;2.55;;;;;;;7.22;100.00;101992.59;4982945;28;20410;-83
2021/11/05 06:17:35;;;;;;;5.43;2.53;;;;;;;7.14;100.00;101991.91;4981302;28;20027;-81
2021/11/05 06:20:02;;;;;;;11.75;3.35;;;;;;;7.18;100.00;102002.34;4981864;28;20027;-80
2021/11/05 06:22:30;;;;;;;9.10;2.60;;;;;;;7.30;100.00;102009.09;4984914;28;20030;-80
2021/11/05 06:24:57;;;;;;;9.07;2.95;;;;;;;7.37;100.00;102016.88;4982990;28;20030;-80
2021/11/05 06:27:24;;;;;;;8.02;3.47;;;;;;;7.47;100.00;102015.78;4980901;28;20034;-81
2021/11/05 06:29:49;;;;;;;6.68;3.00;;;;;;;7.59;100.00;102014.66;4986573;28;20042;-82
2021/11/05 06:32:14;;;;;;;6.93;2.67;;;;;;;7.88;100.00;102023.66;4990543;28;20026;-81
2021/11/05 06:34:40;;;;;;;4.30;2.00;;;;;;;8.14;100.00;102022.22;4989610;28;20037;-79
2021/11/05 06:37:07;;;;;;;7.43;2.00;;;;;;;8.31;100.00;102028.84;4986373;28;20022;-80
2021/11/05 06:39:32;;;;;;;5.68;1.88;;;;;;;8.37;100.00;102031.31;4984182;28;20054;-81
2021/11/05 06:41:58;;;;;;;5.10;2.03;;;;;;;8.48;100.00;102037.22;4989112;28;20046;-80
2021/11/05 06:44:24;;;;;;;8.55;1.73;;;;;;;8.51;100.00;102035.38;4986410;28;20458;-80
2021/11/05 06:46:49;;;;;;;7.90;1.60;;;;;;;8.60;100.00;102048.38;4992387;28;20027;-82
2021/11/05 06:49:15;;;;;;;5.88;1.80;;;;;;;8.63;100.00;102042.16;4990871;28;20049;-81
2021/11/05 06:51:41;;;;;;;3.40;1.52;;;;;;;8.69;100.00;102052.56;4986579;28;20053;-80
2021/11/05 06:54:06;;;;;;;4.50;1.70;;;;;;;8.78;100.00;102046.16;4969170;28;20114;-80
2021/11/05 06:56:31;;;;;;;7.90;2.13;;;;;;;8.88;100.00;102055.56;4968690;28;20039;-80
2021/11/05 06:58:57;;;;;;;5.25;1.88;;;;;;;8.99;100.00;102060.56;4963065;29;20694;-80
2021/11/05 07:01:24;;;;;;;6.22;2.00;;;;;;;9.13;100.00;102075.16;4963574;28;20085;-81
2021/11/05 07:03:49;;;;;;;7.68;2.00;;;;;;;9.21;100.00;102078.44;4977562;28;20473;-81
2021/11/05 07:06:15;;;;;;;6.85;1.67;;;;;;;9.33;100.00;102091.34;4976767;28;20382;-81
2021/11/05 07:08:40;;;;;;;8.43;1.65;;;;;;;9.42;100.00;102092.84;4975995;28;20031;-81
2021/11/05 07:11:06;;;;;;;7.13;1.95;;;;;;;9.57;100.00;102088.88;4976733;28;20038;-81
2021/11/05 07:13:31;;;;;;;5.57;1.30;;;;;;;9.69;100.00;102098.25;4978682;28;20038;-80
2021/11/05 07:15:57;;;;;;;5.97;1.63;;;;;;;9.73;100.00;102091.09;4980062;28;20114;-80
2021/11/05 07:18:22;;;;;;;8.68;1.40;;;;;;;9.72;100.00;102103.44;4980946;28;20034;-79
2021/11/05 07:20:48;;;;;;;4.57;1.20;;;;;;;9.87;100.00;102108.31;4982988;28;20030;-80
2021/11/05 07:23:14;;;;;;;5.07;1.35;;;;;;;9.89;100.00;102107.34;4981082;28;20049;-79
2021/11/05 07:25:40;;;;;;;8.57;1.80;;;;;;;9.97;100.00;102122.97;4980051;28;20093;-79
2021/11/05 07:28:05;;;;;;;7.20;1.75;;;;;;;10.06;100.00;102120.06;4978902;28;20051;-81
2021/11/05 07:30:31;;;;;;;8.95;1.67;;;;;;;10.08;100.00;102120.88;4976224;28;20027;-79
2021/11/05 07:32:57;;;;;;;6.00;1.80;;;;;;;10.05;100.00;102128.03;4977432;28;20382;-80
2021/11/05 07:35:22;;;;;;;5.05;1.70;;;;;;;10.06;100.00;102135.91;4982325;28;20034;-80
2021/11/05 07:37:48;;;;;;;5.68;1.30;;;;;;;10.05;100.00;102139.47;4976579;28;20023;-78
2021/11/05 07:40:13;;;;;;;4.88;1.80;;;;;;;10.12;100.00;102134.00;4982122;28;20027;-82
2021/11/05 07:42:39;;;;;;;8.93;1.60;;;;;;;10.28;100.00;102144.97;4979204;28;20022;-84
2021/11/05 07:45:06;;;;;;;6.40;1.83;;;;;;;10.38;100.00;102156.13;4978125;28;20050;-82
2021/11/05 07:47:31;;;;;;;6.63;2.00;;;;;;;10.45;100.00;102155.00;4976654;28;20038;-80
2021/11/05 07:49:57;;;;;;;7.43;1.70;;;;;;;10.28;100.00;102159.06;4975018;28;20027;-82
2021/11/05 07:52:22;;;;;;;4.50;1.30;;;;;;;10.35;100.00;102160.59;4975027;28;20031;-81
2021/11/05 07:54:47;;;;;;;9.27;1.77;;;;;;;10.34;100.00;102160.63;4972992;28;20088;-81
2021/11/05 07:57:13;;;;;;;11.32;1.60;;;;;;;10.50;100.00;102168.13;4978542;28;20058;-83
2021/11/05 07:59:39;;;;;;;4.97;1.70;;;;;;;10.54;100.00;102172.41;4981963;28;20030;-81
2021/11/05 08:02:05;;;;;;;8.02;1.90;;;;;;;10.46;100.00;102173.50;4988757;28;20035;-81
2021/11/05 08:04:30;;;;;;;2.92;1.75;;;;;;;10.40;100.00;102172.81;4991619;28;20042;-81
2021/11/05 08:06:56;;;;;;;8.43;1.92;;;;;;;10.26;100.00;102178.53;4975799;28;20034;-81
2021/11/05 08:09:21;;;;;;;5.90;1.50;;;;;;;10.26;100.00;102179.38;4991687;28;20027;-81
2021/11/05 08:11:47;;;;;;;4.45;1.50;;;;;;;10.21;100.00;102190.09;4982558;28;20019;-82
2021/11/05 08:14:12;;;;;;;6.38;1.50;;;;;;;10.21;100.00;102192.72;4984687;28;20057;-80
2021/11/05 08:16:38;;;;;;;3.10;1.38;;;;;;;10.20;100.00;102198.94;4989016;28;20126;-80
2021/11/05 08:19:03;;;;;;;7.00;2.03;;;;;;;10.35;100.00;102200.25;4990489;28;20033;-79
2021/11/05 08:21:29;;;;;;;10.45;2.00;;;;;;;10.46;100.00;102205.25;4978939;28;20029;-83
2021/11/05 08:23:54;;;;;;;6.18;1.92;;;;;;;10.63;100.00;102213.59;4977989;28;20302;-83
2021/11/05 08:26:20;;;;;;;4.35;1.40;;;;;;;10.82;100.00;102214.75;4977813;28;20561;-82
2021/11/05 08:28:46;;;;;;;14.02;2.15;;;;;;;10.92;100.00;102212.66;4986520;23;20051;-81
2021/11/05 08:31:12;;;;;;;7.30;1.67;;;;;;;10.96;100.00;102221.38;4979565;28;20057;-81
2021/11/05 08:33:38;;;;;;;5.57;2.13;;;;;;;11.06;100.00;102224.59;4979589;28;20050;-83
2021/11/05 08:36:04;;;;;;;6.75;1.30;;;;;;;11.00;100.00;102222.16;4979401;28;20027;-83
2021/11/05 08:38:30;;;;;;;7.53;1.77;;;;;;;11.06;100.00;102220.13;4976840;28;20102;-81
2021/11/05 08:40:56;;;;;;;6.35;1.58;;;;;;;11.10;100.00;102223.56;4977526;28;20406;-81
2021/11/05 08:43:23;;;;;;;4.18;1.30;;;;;;;10.87;100.00;102219.91;4977463;28;20034;-83
2021/11/05 08:45:49;;;;;;;2.60;1.30;;;;;;;11.12;100.00;102231.44;4977327;28;20039;-82
2021/11/05 08:48:14;;;;;;;4.80;1.23;;;;;;;11.19;100.00;102241.78;4977728;28;20027;-81
2021/11/05 08:50:40;;;;;;;6.25;1.10;;;;;;;11.19;100.00;102235.63;4979580;28;20038;-80
2021/11/05 08:53:05;;;;;;;7.28;1.58;;;;;;;11.26;100.00;102241.59;4980009;28;20027;-81
2021/11/05 08:55:31;;;;;;;5.55;1.73;;;;;;;11.42;100.00;102245.44;4978773;28;20031;-80
2021/11/05 08:57:57;;;;;;;5.40;1.52;;;;;;;11.54;100.00;102253.88;4979706;28;20062;-81
2021/11/05 09:00:24;;;;;;;7.15;1.17;;;;;;;11.68;100.00;102253.41;4980274;28;20117;-83
2021/11/05 09:02:53;;;;;;;4.03;1.20;;;;;;;11.64;100.00;102263.22;4979851;28;20066;-80
2021/11/05 09:05:18;;;;;;;3.80;0.90;;;;;;;11.98;100.00;102255.88;4977260;28;20026;-80
2021/11/05 09:07:44;;;;;;;6.88;1.13;;;;;;;11.96;100.00;102263.03;4976886;28;20505;-80
2021/11/05 09:10:09;;;;;;;4.93;0.95;;;;;;;12.20;100.00;102268.38;4977137;28;20038;-80
2021/11/05 09:12:36;;;;;;;6.65;1.17;;;;;;;12.53;100.00;102276.00;4976360;28;20023;-79
2021/11/05 09:15:03;;;;;;;2.65;0.70;;;;;;;12.42;100.00;102276.41;4959114;28;20117;-79
2021/11/05 09:17:28;;;;;;;3.15;1.40;;;;;;;12.23;100.00;102289.50;4976332;28;20041;-81
2021/11/05 09:19:54;;;;;;;5.10;0.88;;;;;;;12.44;100.00;102285.16;4976616;28;20415;-81
2021/11/05 09:22:19;;;;;;;0.93;0.50;;;;;;;12.31;100.00;102289.22;4977039;28;20019;-83
2021/11/05 09:24:46;;;;;;;1.05;0.40;;;;;;;11.82;100.00;102295.31;4959238;28;20026;-81
2021/11/05 09:27:12;;;;;;;3.60;0.80;;;;;;;11.63;100.00;102300.38;4975844;28;20074;-81
2021/11/05 09:29:38;;;;;;;3.17;0.60;;;;;;;11.73;100.00;102301.81;4976524;28;20085;-82
2021/11/05 09:32:04;;;;;;;1.30;0.50;;;;;;;11.76;100.00;102304.38;4975403;28;20113;-83
2021/11/05 09:34:31;;;;;;;4.60;0.70;;;;;;;11.98;100.00;102308.91;4976393;28;20030;-83
2021/11/05 09:36:58;;;;;;;4.03;0.70;;;;;;;12.36;100.00;102319.09;4976331;28;20110;-82
2021/11/05 09:39:24;;;;;;;3.72;0.80;;;;;;;12.66;100.00;102313.53;4975830;28;20216;-79
2021/11/05 09:41:49;;;;;;;6.32;0.88;;;;;;;13.29;100.00;102311.97;4976040;28;20089;-81
2021/11/05 09:44:15;;;;;;;2.85;0.55;;;;;;;12.71;100.00;102330.16;4975929;28;20031;-79
2021/11/05 09:46:40;;;;;;;2.65;0.68;;;;;;;11.73;100.00;102340.69;4974538;28;20093;-82
2021/11/05 09:49:06;;;;;;;2.00;0.43;;;;;;;11.49;100.00;102351.19;4976103;28;20389;-81
2021/11/05 09:51:31;;;;;;;0.85;0.50;;;;;;;10.92;100.00;102355.56;4975860;28;20350;-79
2021/11/05 09:54:01;;;;;;;1.60;0.32;;;;;;;10.67;100.00;102363.38;4957950;28;20050;-80
2021/11/05 09:56:27;;;;;;;4.72;0.85;;;;;;;10.70;100.00;102364.16;4955276;29;20117;-80
2021/11/05 09:58:52;;;;;;;1.65;0.50;;;;;;;10.89;100.00;102362.75;4955630;29;20031;-87
2021/11/05 10:01:18;;;;;;;3.17;0.52;;;;;;;10.74;100.00;102367.59;4957178;29;20045;-81
2021/11/05 10:03:43;;;;;;;3.78;0.50;;;;;;;10.96;100.00;102373.13;4956416;29;20438;-84
2021/11/05 10:06:09;;;;;;;2.47;0.70;;;;;;;11.15;100.00;102377.84;4959083;29;20394;-82
2021/11/05 10:08:35;;;;;;;2.63;0.60;;;;;;;11.15;100.00;102379.63;4961389;29;20098;-79
2021/11/05 10:11:38;;;;;;;1.80;0.60;;;;;;;11.19;100.00;102383.88;4963395;29;20024;-81
2021/11/05 10:14:03;;;;;;;2.78;0.70;;;;;;;11.72;100.00;102382.22;4961115;29;20143;-79
2021/11/05 10:16:30;;;;;;;1.20;0.80;;;;;;;11.40;100.00;102386.78;4959214;29;20043;-80
2021/11/05 10:19:01;;;;;;;4.20;0.95;;;;;;;11.60;100.00;102388.78;4959448;28;20042;-80
2021/11/05 10:21:26;;;;;;;5.78;1.13;;;;;;;11.90;100.00;102387.81;4959859;29;20036;-81
2021/11/05 10:23:52;;;;;;;5.63;1.15;;;;;;;11.88;100.00;102390.53;4976261;28;20057;-82
2021/11/05 10:26:22;;;;;;;3.53;0.70;;;;;;;12.10;100.00;102386.31;4977719;28;20062;-79
2021/11/05 10:28:48;;;;;;;4.60;0.60;;;;;;;12.40;100.00;102396.75;4962162;28;20070;-79
2021/11/05 10:31:15;;;;;;;4.68;0.93;;;;;;;12.05;100.00;102391.75;4977415;28;20468;-79
2021/11/05 10:33:43;;;;;;;2.33;0.70;;;;;;;12.68;100.00;102390.44;4979087;28;20046;-77
2021/11/05 10:36:10;;;;;;;5.20;0.85;;;;;;;12.68;100.00;102391.31;4974179;28;20066;-78
2021/11/05 10:38:42;;;;;;;3.53;0.80;;;;;;;12.79;100.00;102382.94;4975598;28;20035;-78
2021/11/05 10:41:10;;;;;;;5.72;1.45;;;;;;;12.93;100.00;102394.81;4974731;28;20047;-79
2021/11/05 10:43:43;;;;;;;6.07;0.98;;;;;;;12.92;100.00;102393.97;4972136;28;20443;-79
2021/11/05 10:46:22;;;;;;;3.17;0.73;;;;;;;12.94;100.00;102402.72;4972107;28;20046;-82
2021/11/05 10:48:48;;;;;;;4.03;0.90;;;;;;;12.92;100.00;102395.75;4973838;28;20035;-82
2021/11/05 10:51:13;;;;;;;3.72;0.90;;;;;;;13.01;100.00;102398.06;4974587;28;20097;-82
2021/11/05 10:53:40;;;;;;;4.20;0.82;;;;;;;13.26;100.00;102397.09;4959955;28;20058;-82
2021/11/05 10:56:12;;;;;;;5.82;0.93;;;;;;;13.49;100.00;102397.97;4955547;28;20358;-81
2021/11/05 10:58:42;;;;;;;6.03;1.03;;;;;;;13.46;100.00;102396.28;4955283;28;20039;-82
2021/11/05 11:01:12;;;;;;;6.07;1.33;;;;;;;13.58;100.00;102400.31;4937972;29;20083;-82
2021/11/05 11:03:54;;;;;;;3.97;0.88;;;;;;;13.67;100.00;102401.69;4953811;29;20051;-82
2021/11/05 11:06:23;;;;;;;3.17;0.85;;;;;;;13.60;100.00;102404.69;4954622;28;20095;-82
2021/11/05 11:08:54;;;;;;;6.45;1.15;;;;;;;13.60;100.00;102404.69;4954713;28;20106;-82
2021/11/05 11:11:28;;;;;;;4.72;1.00;;;;;;;13.61;100.00;102409.06;4953365;29;20591;-82
2021/11/05 11:13:58;;;;;;;5.18;1.17;;;;;;;13.78;100.00;102416.34;4954310;28;20035;-81
2021/11/05 11:16:35;;;;;;;5.85;1.50;;;;;;;13.55;100.00;102415.50;4955145;28;20023;-83